createdAt,value
2023-03-10T00:01:24.736Z,99046.77
2023-03-10T00:03:54.438Z,99039.55
2023-03-10T00:06:24.875Z,99037.39
2023-03-10T00:08:53.171Z,99036.48
2023-03-10T00:11:22.122Z,99033.77
2023-03-10T00:13:50.308Z,99025.93
2023-03-10T00:16:21.446Z,99023.13
2023-03-10T00:18:50.994Z,99018.36
2023-03-10T00:21:21.631Z,99010.84
2023-03-10T00:23:49.707Z,99007.85
2023-03-10T00:26:19.528Z,98996.94
2023-03-10T00:28:47.872Z,98992.10
2023-03-10T00:31:21.545Z,98995.21
2023-03-10T00:33:50.445Z,98991.46
2023-03-10T00:36:22.902Z,98986.89
2023-03-10T00:38:51.927Z,98981.34
2023-03-10T00:41:25.759Z,98980.92
2023-03-10T00:43:54.111Z,98978.19
2023-03-10T00:46:22.169Z,98975.09
2023-03-10T00:48:50.238Z,98960.14
2023-03-10T00:51:19.960Z,98950.95
2023-03-10T00:53:49.649Z,98948.93
2023-03-10T00:56:19.010Z,98941.23
2023-03-10T00:58:50.104Z,98939.96
2023-03-10T01:01:27.433Z,98934.58
2023-03-10T01:03:57.751Z,98920.79
2023-03-10T01:06:26.259Z,98917.16
2023-03-10T01:08:55.295Z,98908.98
2023-03-10T01:11:27.000Z,98911.76
2023-03-10T01:14:00.172Z,98911.20
2023-03-10T01:16:28.833Z,98916.00
2023-03-10T01:18:58.158Z,98921.41
2023-03-10T01:21:29.417Z,98917.66
2023-03-10T01:23:57.808Z,98908.74
2023-03-10T01:26:25.829Z,98906.41
2023-03-10T01:28:54.095Z,98900.39
2023-03-10T01:31:22.687Z,98890.86
2023-03-10T01:33:50.709Z,98889.32
2023-03-10T01:36:26.221Z,98887.20
2023-03-10T01:38:56.647Z,98880.08
2023-03-10T01:41:25.662Z,98874.95
2023-03-10T01:43:56.133Z,98870.92
2023-03-10T01:46:27.322Z,98870.13
2023-03-10T01:48:59.692Z,98872.45
2023-03-10T01:51:33.312Z,98875.16
2023-03-10T01:54:04.301Z,98872.54
2023-03-10T01:56:32.172Z,98868.39
2023-03-10T01:59:00.289Z,98860.64
2023-03-10T02:01:31.119Z,98855.67
2023-03-10T02:04:08.030Z,98852.70
2023-03-10T02:06:37.635Z,98851.20
2023-03-10T02:09:06.060Z,98841.79
2023-03-10T02:11:34.304Z,98836.74
2023-03-10T02:14:06.900Z,98829.79
2023-03-10T02:16:35.139Z,98834.00
2023-03-10T02:19:09.097Z,98833.93
2023-03-10T02:21:45.621Z,98822.91
2023-03-10T02:24:27.397Z,98810.99
2023-03-10T02:27:14.961Z,98798.46
2023-03-10T02:29:59.401Z,98795.95
2023-03-10T02:32:34.319Z,98791.23
2023-03-10T02:35:04.044Z,98788.52
2023-03-10T02:37:35.695Z,98780.98
2023-03-10T02:40:22.767Z,98773.95
2023-03-10T02:42:51.564Z,98767.20
2023-03-10T02:45:19.561Z,98760.91
2023-03-10T02:47:47.666Z,98752.25
2023-03-10T02:50:18.109Z,98741.95
2023-03-10T02:53:08.176Z,98730.85
2023-03-10T02:55:36.322Z,98721.52
2023-03-10T02:58:04.395Z,98712.30
2023-03-10T03:00:32.335Z,98700.55
2023-03-10T03:03:00.149Z,98695.84
2023-03-10T03:05:28.097Z,98694.42
2023-03-10T03:07:56.993Z,98699.55
2023-03-10T03:10:25.788Z,98699.83
2023-03-10T03:12:56.281Z,98697.63
2023-03-10T03:15:26.403Z,98687.56
2023-03-10T03:17:55.045Z,98677.67
2023-03-10T03:20:23.437Z,98680.83
2023-03-10T03:22:52.539Z,98670.42
2023-03-10T03:25:22.720Z,98656.86
2023-03-10T03:27:50.854Z,98652.73
2023-03-10T03:30:23.671Z,98646.48
2023-03-10T03:32:53.744Z,98640.96
2023-03-10T03:35:29.895Z,98639.79
2023-03-10T03:37:58.088Z,98637.77
2023-03-10T03:40:28.778Z,98634.56
2023-03-10T03:42:57.481Z,98640.86
2023-03-10T03:45:27.466Z,98636.73
2023-03-10T03:47:56.437Z,98629.23
2023-03-10T03:50:25.726Z,98622.26
2023-03-10T03:52:55.715Z,98611.62
2023-03-10T03:55:24.313Z,98607.98
2023-03-10T03:57:52.671Z,98603.53
2023-03-10T04:00:23.599Z,98596.46
2023-03-10T04:02:56.423Z,98589.81
2023-03-10T04:05:26.462Z,98590.23
2023-03-10T04:07:54.368Z,98586.03
2023-03-10T04:10:24.291Z,98583.54
2023-03-10T04:12:52.516Z,98575.45
2023-03-10T04:15:20.950Z,98565.54
2023-03-10T04:17:49.176Z,98563.58
2023-03-10T04:20:18.235Z,98557.64
2023-03-10T04:22:48.647Z,98544.73
2023-03-10T04:25:16.713Z,98535.52
2023-03-10T04:27:44.796Z,98530.58
2023-03-10T04:30:14.833Z,98525.40
2023-03-10T04:32:47.923Z,98526.84
2023-03-10T04:35:17.563Z,98526.98
2023-03-10T04:37:45.513Z,98525.19
2023-03-10T04:40:14.642Z,98521.23
2023-03-10T04:42:43.015Z,98520.67
2023-03-10T04:45:12.012Z,98522.81
2023-03-10T04:47:41.645Z,98514.00
2023-03-10T04:50:11.586Z,98514.85
2023-03-10T04:52:40.700Z,98507.20
2023-03-10T04:55:09.453Z,98499.44
2023-03-10T04:57:37.525Z,98492.90
2023-03-10T05:00:08.239Z,98490.86
2023-03-10T05:02:37.706Z,98483.02
2023-03-10T05:05:06.533Z,98476.95
2023-03-10T05:07:35.604Z,98475.16
2023-03-10T05:10:04.871Z,98464.58
2023-03-10T05:12:33.585Z,98461.30
2023-03-10T05:15:02.161Z,98454.11
2023-03-10T05:17:30.584Z,98447.55
2023-03-10T05:19:59.210Z,98447.24
2023-03-10T05:22:27.632Z,98438.30
2023-03-10T05:24:55.961Z,98431.49
2023-03-10T05:27:24.776Z,98424.81
2023-03-10T05:29:54.150Z,98422.28
2023-03-10T05:32:25.000Z,98415.07
2023-03-10T05:34:53.617Z,98415.95
2023-03-10T05:37:21.671Z,98421.48
2023-03-10T05:39:49.664Z,98415.21
2023-03-10T05:42:20.571Z,98419.41
2023-03-10T05:44:48.760Z,98417.18
2023-03-10T05:47:19.215Z,98407.19
2023-03-10T05:49:47.366Z,98419.90
2023-03-10T05:52:15.584Z,98414.95
2023-03-10T05:54:44.331Z,98406.17
2023-03-10T05:57:14.112Z,98404.32
2023-03-10T05:59:43.166Z,98397.79
2023-03-10T06:02:11.439Z,98389.21
2023-03-10T06:04:39.373Z,98388.51
2023-03-10T06:07:07.353Z,98384.41
2023-03-10T06:09:35.194Z,98378.91
2023-03-10T06:12:03.220Z,98376.92
2023-03-10T06:14:31.099Z,98374.53
2023-03-10T06:16:59.105Z,98376.17
2023-03-10T06:19:27.591Z,98375.05
2023-03-10T06:21:55.466Z,98370.07
2023-03-10T06:24:23.345Z,98367.92
2023-03-10T06:26:51.270Z,98364.00
2023-03-10T06:29:19.586Z,98357.95
2023-03-10T06:31:47.667Z,98356.49
2023-03-10T06:34:15.730Z,98352.27
2023-03-10T06:36:43.872Z,98346.96
2023-03-10T06:39:11.738Z,98347.30
2023-03-10T06:41:39.661Z,98351.30
2023-03-10T06:44:07.620Z,98346.81
2023-03-10T06:46:35.733Z,98339.16
2023-03-10T06:49:03.639Z,98337.21
2023-03-10T06:51:31.567Z,98337.45
2023-03-10T06:53:59.435Z,98335.45
2023-03-10T06:56:27.290Z,98337.61
2023-03-10T06:58:55.291Z,98336.78
2023-03-10T07:01:34.453Z,98332.47
2023-03-10T07:04:02.503Z,98335.30
2023-03-10T07:06:30.804Z,98326.94
2023-03-10T07:08:58.859Z,98326.29
2023-03-10T07:11:27.541Z,98325.52
2023-03-10T07:13:55.543Z,98322.94
2023-03-10T07:16:23.568Z,98318.89
2023-03-10T07:18:51.551Z,98318.80
2023-03-10T07:21:21.017Z,98318.17
2023-03-10T07:23:49.730Z,98315.68
2023-03-10T07:26:18.929Z,98314.42
2023-03-10T07:28:47.468Z,98309.52
2023-03-10T07:31:16.413Z,98305.65
2023-03-10T07:33:44.608Z,98303.50
2023-03-10T07:36:16.742Z,98303.05
2023-03-10T07:38:45.548Z,98306.12
2023-03-10T07:41:19.261Z,98305.38
2023-03-10T07:43:47.763Z,98306.43
2023-03-10T07:46:16.066Z,98303.11
2023-03-10T07:48:44.357Z,98300.88
2023-03-10T07:51:12.684Z,98303.57
2023-03-10T07:53:41.093Z,98300.80
2023-03-10T07:56:10.940Z,98303.02
2023-03-10T07:58:39.782Z,98304.84
2023-03-10T08:01:10.713Z,98303.40
2023-03-10T08:03:38.626Z,98304.38
2023-03-10T08:06:07.084Z,98302.17
2023-03-10T08:08:35.719Z,98303.71
2023-03-10T08:11:06.482Z,98306.88
2023-03-10T08:13:34.510Z,98308.77
2023-03-10T08:16:03.162Z,98306.92
2023-03-10T08:18:31.685Z,98304.45
2023-03-10T08:21:03.228Z,98309.78
2023-03-10T08:23:31.110Z,98309.21
2023-03-10T08:26:04.326Z,98308.54
2023-03-10T08:28:35.191Z,98309.05
2023-03-10T08:31:15.621Z,98308.15
2023-03-10T08:33:45.171Z,98309.45
2023-03-10T08:36:16.982Z,98305.66
2023-03-10T08:38:45.882Z,98304.85
2023-03-10T08:41:20.130Z,98303.27
2023-03-10T08:43:49.595Z,98300.84
2023-03-10T08:46:20.137Z,98300.34
2023-03-10T08:48:48.564Z,98303.23
2023-03-10T08:51:17.613Z,98295.28
2023-03-10T08:53:48.615Z,98294.51
2023-03-10T08:56:18.209Z,98293.71
2023-03-10T08:58:46.620Z,98293.63
2023-03-10T09:01:16.879Z,98295.45
2023-03-10T09:03:46.027Z,98292.34
2023-03-10T09:06:15.502Z,98290.02
2023-03-10T09:08:43.655Z,98289.92
2023-03-10T09:11:20.586Z,98286.91
2023-03-10T09:13:48.808Z,98288.19
2023-03-10T09:16:17.377Z,98290.41
2023-03-10T09:18:45.702Z,98289.73
2023-03-10T09:21:16.214Z,98284.05
2023-03-10T09:23:46.101Z,98281.57
2023-03-10T09:26:15.006Z,98278.61
2023-03-10T09:28:42.898Z,98279.41
2023-03-10T09:31:17.515Z,98279.92
2023-03-10T09:33:48.232Z,98276.81
2023-03-10T09:36:17.732Z,98279.75
2023-03-10T09:38:46.844Z,98283.59
2023-03-10T09:41:39.717Z,98285.47
2023-03-10T09:44:19.347Z,98287.29
2023-03-10T09:47:14.450Z,98283.15
2023-03-10T09:50:02.367Z,98286.56
2023-03-10T09:52:46.019Z,98283.97
2023-03-10T09:55:27.938Z,98277.20
2023-03-10T09:57:57.319Z,98281.10
2023-03-10T10:00:39.524Z,98283.84
2023-03-10T10:03:22.636Z,98279.48
2023-03-10T10:05:53.817Z,98277.36
2023-03-10T10:08:29.110Z,98277.40
2023-03-10T10:11:00.336Z,98274.76
2023-03-10T10:13:30.748Z,98273.38
2023-03-10T10:16:34.009Z,98276.29
2023-03-10T10:19:29.405Z,98270.38
2023-03-10T10:21:57.269Z,98267.27
2023-03-10T10:24:25.557Z,98265.92
2023-03-10T10:26:53.360Z,98266.67
2023-03-10T10:29:36.673Z,98267.66
2023-03-10T10:32:13.434Z,98259.55
2023-03-10T10:34:46.545Z,98252.23
2023-03-10T10:37:23.756Z,98250.05
2023-03-10T10:39:54.453Z,98248.66
2023-03-10T10:42:36.496Z,98254.23
2023-03-10T10:45:06.659Z,98256.30
2023-03-10T10:47:47.763Z,98259.42
2023-03-10T10:50:23.098Z,98259.52
2023-03-10T10:53:15.685Z,98263.85
2023-03-10T10:55:46.634Z,98268.91
2023-03-10T10:58:45.585Z,98268.56
2023-03-10T11:01:16.477Z,98267.38
2023-03-10T11:03:49.139Z,98263.08
2023-03-10T11:06:29.711Z,98263.91
2023-03-10T11:09:18.412Z,98264.75
2023-03-10T11:12:04.507Z,98266.52
2023-03-10T11:15:16.060Z,98262.25
2023-03-10T11:18:01.212Z,98257.68
2023-03-10T11:20:46.457Z,98249.89
2023-03-10T11:23:19.722Z,98247.95
2023-03-10T11:25:59.133Z,98248.04
2023-03-10T11:28:39.392Z,98251.89
2023-03-10T11:31:07.268Z,98250.50
2023-03-10T11:34:12.044Z,98246.17
2023-03-10T11:36:55.991Z,98240.56
2023-03-10T11:39:30.885Z,98240.67
2023-03-10T11:42:09.574Z,98246.54
2023-03-10T11:44:55.925Z,98242.09
2023-03-10T11:48:02.763Z,98242.77
2023-03-10T11:50:48.415Z,98237.52
2023-03-10T11:53:33.385Z,98242.13
2023-03-10T11:56:02.967Z,98241.98
2023-03-10T11:58:58.661Z,98238.35
2023-03-10T12:01:33.281Z,98235.35
2023-03-10T12:04:12.149Z,98238.29
2023-03-10T12:06:56.999Z,98235.04
2023-03-10T12:09:31.939Z,98234.19
2023-03-10T12:12:03.552Z,98237.98
2023-03-10T12:14:33.636Z,98235.70
2023-03-10T12:17:04.363Z,98233.89
2023-03-10T12:19:32.195Z,98231.25
2023-03-10T12:22:24.928Z,98232.77
2023-03-10T12:24:53.215Z,98230.55
2023-03-10T12:27:21.239Z,98232.73
2023-03-10T12:29:49.564Z,98229.66
2023-03-10T12:32:39.743Z,98230.05
2023-03-10T12:35:46.563Z,98229.55
2023-03-10T12:38:31.551Z,98230.44
2023-03-10T12:41:01.183Z,98236.23
2023-03-10T12:43:47.101Z,98241.94
2023-03-10T12:46:22.429Z,98237.16
2023-03-10T12:49:03.754Z,98245.73
2023-03-10T12:51:38.926Z,98243.08
2023-03-10T12:54:38.220Z,98242.81
2023-03-10T12:57:32.385Z,98238.11
2023-03-10T13:00:14.470Z,98246.52
2023-03-10T13:02:50.912Z,98240.70
2023-03-10T13:05:23.891Z,98237.54
2023-03-10T13:08:01.294Z,98240.30
2023-03-10T13:10:32.631Z,98238.50
2023-03-10T13:13:08.904Z,98240.08
2023-03-10T13:15:36.806Z,98238.35
2023-03-10T13:18:22.190Z,98235.14
2023-03-10T13:20:50.777Z,98234.07
2023-03-10T13:23:32.771Z,98233.60
2023-03-10T13:26:05.003Z,98224.80
2023-03-10T13:28:35.746Z,98226.02
2023-03-10T13:31:14.746Z,98222.06
2023-03-10T13:33:52.965Z,98223.98
2023-03-10T13:36:31.454Z,98225.09
2023-03-10T13:39:10.275Z,98229.00
2023-03-10T13:41:41.229Z,98228.99
2023-03-10T13:44:39.896Z,98227.99
2023-03-10T13:47:27.001Z,98228.87
2023-03-10T13:49:58.242Z,98227.64
2023-03-10T13:52:29.229Z,98226.15
2023-03-10T13:55:13.445Z,98225.41
2023-03-10T13:57:42.886Z,98226.06
2023-03-10T14:00:18.367Z,98227.14
2023-03-10T14:02:49.389Z,98225.89
2023-03-10T14:05:43.741Z,98225.77
2023-03-10T14:08:24.307Z,98224.39
2023-03-10T14:10:52.179Z,98234.75
2023-03-10T14:13:40.567Z,98244.23
2023-03-10T14:16:09.351Z,98247.69
2023-03-10T14:18:39.120Z,98241.30
2023-03-10T14:21:24.764Z,98235.39
2023-03-10T14:23:53.707Z,98230.87
2023-03-10T14:26:21.506Z,98236.27
2023-03-10T14:28:49.380Z,98243.25
2023-03-10T14:31:23.891Z,98247.83
2023-03-10T14:33:52.051Z,98243.89
2023-03-10T14:36:19.996Z,98237.21
2023-03-10T14:38:47.998Z,98243.75
2023-03-10T14:41:19.210Z,98236.52
2023-03-10T14:43:47.099Z,98238.14
2023-03-10T14:46:15.162Z,98232.70
2023-03-10T14:48:43.557Z,98226.95
2023-03-10T14:51:17.828Z,98206.96
2023-03-10T14:53:50.632Z,98205.39
2023-03-10T14:56:21.661Z,98206.35
2023-03-10T14:58:52.410Z,98208.77
2023-03-10T15:01:21.549Z,98203.23
2023-03-10T15:03:49.527Z,98199.77
2023-03-10T15:06:19.636Z,98200.02
2023-03-10T15:08:47.438Z,98197.74
2023-03-10T15:11:21.521Z,98201.98
2023-03-10T15:13:58.362Z,98200.84
2023-03-10T15:16:26.282Z,98197.27
2023-03-10T15:18:54.114Z,98199.77
2023-03-10T15:21:22.077Z,98201.77
2023-03-10T15:23:49.956Z,98199.54
2023-03-10T15:26:17.873Z,98194.52
2023-03-10T15:28:45.854Z,98195.05
2023-03-10T15:31:13.745Z,98194.17
2023-03-10T15:33:41.590Z,98186.39
2023-03-10T15:36:10.027Z,98187.23
2023-03-10T15:38:38.960Z,98182.50
2023-03-10T15:41:06.845Z,98177.19
2023-03-10T15:43:34.769Z,98178.64
2023-03-10T15:46:09.750Z,98178.00
2023-03-10T15:48:37.698Z,98178.03
2023-03-10T15:51:10.515Z,98179.46
2023-03-10T15:53:38.730Z,98180.23
2023-03-10T15:56:09.096Z,98180.02
2023-03-10T15:58:37.141Z,98178.72
2023-03-10T16:01:20.720Z,98182.24
2023-03-10T16:03:51.346Z,98179.11
2023-03-10T16:06:24.549Z,98175.11
2023-03-10T16:08:52.346Z,98170.70
2023-03-10T16:11:21.972Z,98168.56
2023-03-10T16:13:49.886Z,98168.67
2023-03-10T16:16:20.436Z,98169.40
2023-03-10T16:18:49.191Z,98167.22
2023-03-10T16:21:18.164Z,98169.25
2023-03-10T16:23:46.586Z,98170.90
2023-03-10T16:26:23.204Z,98175.25
2023-03-10T16:28:54.945Z,98178.56
2023-03-10T16:31:26.328Z,98177.88
2023-03-10T16:33:55.531Z,98177.27
2023-03-10T16:36:26.496Z,98174.27
2023-03-10T16:38:54.610Z,98175.14
2023-03-10T16:41:23.922Z,98169.11
2023-03-10T16:43:54.296Z,98169.45
2023-03-10T16:46:25.846Z,98169.58
2023-03-10T16:48:54.734Z,98164.97
2023-03-10T16:51:33.035Z,98165.15
2023-03-10T16:54:10.836Z,98170.25
2023-03-10T16:56:41.811Z,98170.05
2023-03-10T16:59:13.486Z,98166.91
2023-03-10T17:01:41.494Z,98169.65
2023-03-10T17:04:09.795Z,98168.52
2023-03-10T17:06:38.515Z,98170.39
2023-03-10T17:09:09.282Z,98177.53
2023-03-10T17:11:51.947Z,98177.60
2023-03-10T17:14:21.836Z,98180.63
2023-03-10T17:16:51.013Z,98176.14
2023-03-10T17:19:22.668Z,98175.17
2023-03-10T17:21:52.363Z,98179.44
2023-03-10T17:24:20.630Z,98180.01
2023-03-10T17:26:48.541Z,98180.63
2023-03-10T17:29:16.936Z,98177.88
2023-03-10T17:31:48.929Z,98175.58
2023-03-10T17:34:17.960Z,98174.19
2023-03-10T17:36:47.055Z,98166.94
2023-03-10T17:39:19.255Z,98170.96
2023-03-10T17:41:48.266Z,98167.36
2023-03-10T17:44:16.860Z,98160.73
2023-03-10T17:46:45.469Z,98161.64
2023-03-10T17:49:15.400Z,98162.08
2023-03-10T17:51:44.755Z,98164.70
2023-03-10T17:54:15.853Z,98161.52
2023-03-10T17:56:43.882Z,98156.97
2023-03-10T17:59:14.388Z,98154.96
2023-03-10T18:01:44.089Z,98153.52
2023-03-10T18:04:12.554Z,98146.64
2023-03-10T18:06:40.513Z,98145.27
2023-03-10T18:09:13.917Z,98139.65
2023-03-10T18:11:41.827Z,98130.67
2023-03-10T18:14:09.910Z,98129.13
2023-03-10T18:16:40.186Z,98127.05
2023-03-10T18:19:11.141Z,98120.12
2023-03-10T18:21:39.358Z,98118.81
2023-03-10T18:24:08.894Z,98119.42
2023-03-10T18:26:38.182Z,98116.29
2023-03-10T18:29:06.154Z,98116.71
2023-03-10T18:31:34.738Z,98117.05
2023-03-10T18:34:02.815Z,98114.34
2023-03-10T18:36:33.243Z,98111.86
2023-03-10T18:39:03.979Z,98107.30
2023-03-10T18:41:32.832Z,98103.63
2023-03-10T18:44:01.669Z,98101.55
2023-03-10T18:46:30.211Z,98098.65
2023-03-10T18:48:58.473Z,98096.53
2023-03-10T18:51:28.205Z,98092.42
2023-03-10T18:53:56.886Z,98093.08
2023-03-10T18:56:28.997Z,98100.77
2023-03-10T18:58:57.724Z,98109.79
2023-03-10T19:01:27.020Z,98111.12
2023-03-10T19:03:56.055Z,98120.46
2023-03-10T19:06:30.599Z,98122.09
2023-03-10T19:08:59.117Z,98127.42
2023-03-10T19:11:33.143Z,98123.33
2023-03-10T19:14:02.689Z,98127.88
2023-03-10T19:16:30.744Z,98129.69
2023-03-10T19:18:58.799Z,98126.33
2023-03-10T19:21:26.632Z,98123.43
2023-03-10T19:23:55.666Z,98115.36
2023-03-10T19:26:24.237Z,98105.02
2023-03-10T19:28:53.560Z,98103.08
2023-03-10T19:31:21.530Z,98104.24
2023-03-10T19:33:49.739Z,98105.29
2023-03-10T19:36:17.837Z,98104.05
2023-03-10T19:38:46.123Z,98104.19
2023-03-10T19:41:17.230Z,98104.40
2023-03-10T19:43:46.750Z,98104.32
2023-03-10T19:46:15.837Z,98108.89
2023-03-10T19:48:44.778Z,98111.27
2023-03-10T19:51:25.274Z,98102.38
2023-03-10T19:53:55.395Z,98100.05
2023-03-10T19:56:26.400Z,98098.48
2023-03-10T19:58:54.372Z,98093.73
2023-03-10T20:01:24.703Z,98095.38
2023-03-10T20:03:55.305Z,98093.68
2023-03-10T20:06:24.030Z,98092.54
2023-03-10T20:08:52.433Z,98088.53
2023-03-10T20:11:21.744Z,98086.36
2023-03-10T20:13:52.584Z,98083.08
2023-03-10T20:16:22.810Z,98078.13
2023-03-10T20:18:50.734Z,98076.03
2023-03-10T20:21:18.528Z,98074.48
2023-03-10T20:23:48.625Z,98072.94
2023-03-10T20:26:18.102Z,98070.91
2023-03-10T20:28:46.383Z,98068.66
2023-03-10T20:31:20.368Z,98066.86
2023-03-10T20:33:48.804Z,98068.60
2023-03-10T20:36:16.807Z,98070.18
2023-03-10T20:38:46.208Z,98071.14
2023-03-10T20:41:16.119Z,98073.05
2023-03-10T20:43:44.359Z,98078.49
2023-03-10T20:46:12.902Z,98078.61
2023-03-10T20:48:41.002Z,98081.10
2023-03-10T20:51:08.971Z,98077.55
2023-03-10T20:53:37.483Z,98079.84
2023-03-10T20:56:11.623Z,98078.44
2023-03-10T20:58:39.431Z,98080.60
2023-03-10T21:01:15.540Z,98077.42
2023-03-10T21:03:43.490Z,98078.79
2023-03-10T21:06:11.426Z,98078.04
2023-03-10T21:08:39.274Z,98074.11
2023-03-10T21:11:07.146Z,98074.36
2023-03-10T21:13:35.551Z,98068.65
2023-03-10T21:16:03.862Z,98070.46
2023-03-10T21:18:31.775Z,98069.38
2023-03-10T21:20:59.566Z,98066.91
2023-03-10T21:23:27.521Z,98069.17
2023-03-10T21:25:55.440Z,98066.84
2023-03-10T21:28:23.241Z,98069.27
2023-03-10T21:30:51.178Z,98069.80
2023-03-10T21:33:22.854Z,98066.12
2023-03-10T21:35:50.663Z,98069.27
2023-03-10T21:38:18.460Z,98068.38
2023-03-10T21:40:46.224Z,98066.02
2023-03-10T21:43:14.186Z,98062.29
2023-03-10T21:45:42.048Z,98059.27
2023-03-10T21:48:11.590Z,98055.90
2023-03-10T21:50:39.480Z,98061.30
2023-03-10T21:53:07.449Z,98061.77
2023-03-10T21:55:37.250Z,98059.88
2023-03-10T21:58:05.756Z,98058.70
2023-03-10T22:00:36.215Z,98055.00
2023-03-10T22:03:05.060Z,98056.56
2023-03-10T22:05:32.898Z,98055.08
2023-03-10T22:08:00.769Z,98053.38
2023-03-10T22:10:28.699Z,98052.99
2023-03-10T22:12:56.935Z,98049.36
2023-03-10T22:15:27.225Z,98054.30
2023-03-10T22:17:55.780Z,98052.87
2023-03-10T22:20:26.470Z,98051.02
2023-03-10T22:22:54.953Z,98051.21
2023-03-10T22:25:23.741Z,98044.19
2023-03-10T22:27:57.115Z,98047.51
2023-03-10T22:30:26.647Z,98046.56
2023-03-10T22:32:55.615Z,98043.89
2023-03-10T22:35:24.088Z,98041.57
2023-03-10T22:37:52.741Z,98042.13
2023-03-10T22:40:25.199Z,98039.67
2023-03-10T22:42:53.977Z,98036.45
2023-03-10T22:45:28.101Z,98033.58
2023-03-10T22:47:59.244Z,98028.33
2023-03-10T22:50:33.755Z,98031.85
2023-03-10T22:53:08.233Z,98030.82
2023-03-10T22:55:36.274Z,98032.48
2023-03-10T22:58:07.157Z,98029.16
2023-03-10T23:00:35.336Z,98024.49
2023-03-10T23:03:05.084Z,98023.88
2023-03-10T23:05:33.434Z,98017.02
2023-03-10T23:08:01.504Z,98017.27
2023-03-10T23:10:32.328Z,98003.54
2023-03-10T23:13:03.178Z,98004.29
2023-03-10T23:15:33.952Z,98005.14
2023-03-10T23:18:02.365Z,97999.77
2023-03-10T23:20:36.645Z,97994.90
2023-03-10T23:23:06.250Z,97988.28
2023-03-10T23:25:37.597Z,97990.98
2023-03-10T23:28:08.231Z,97988.95
2023-03-10T23:30:38.625Z,97991.73
2023-03-10T23:33:12.048Z,97991.68
2023-03-10T23:35:40.736Z,97986.14
2023-03-10T23:38:09.288Z,97985.52
2023-03-10T23:40:37.074Z,97986.77
2023-03-10T23:43:06.909Z,97988.73
2023-03-10T23:45:37.611Z,97988.27
2023-03-10T23:48:09.160Z,97984.70
2023-03-10T23:50:40.704Z,97982.72
2023-03-10T23:53:10.562Z,97975.35
2023-03-10T23:55:43.909Z,97985.38
2023-03-10T23:58:13.292Z,97983.71
